Time;durP1;ratioP1;P1;durP2;ratioP2;P2;SDS_P1;SDS_P2;PMS_P1;PMS_P2;Temp;Humidity;BMP_temperature;BMP_pressure;BME280_temperature;BME280_humidity;BME280_pressure;Samples;Min_cycle;Max_cycle;Signal;HPM_P1;HPM_P2
2020/12/13 00:00:32;;;;;;;45.20;33.28;;;;;;;10.56;65.35;92632.56;4976155;28;20352;-78
2020/12/13 00:02:58;;;;;;;47.20;34.10;;;;;;;10.55;64.87;92632.91;4974550;28;20043;-78
2020/12/13 00:05:23;;;;;;;52.25;36.38;;;;;;;10.56;64.63;92645.78;4972999;28;20047;-78
2020/12/13 00:07:50;;;;;;;57.28;39.72;;;;;;;10.47;64.10;92629.19;4979135;28;20104;-78
2020/12/13 00:10:19;;;;;;;56.13;38.40;;;;;;;10.39;65.07;92636.06;4981465;28;20035;-78
2020/12/13 00:12:45;;;;;;;62.45;41.28;;;;;;;10.47;65.49;92644.25;4959135;28;20071;-78
2020/12/13 00:15:10;;;;;;;56.75;41.75;;;;;;;10.48;65.41;92638.66;4973986;28;20088;-78
2020/12/13 00:17:36;;;;;;;57.20;39.70;;;;;;;10.46;64.89;92640.84;4972084;28;20039;-78
2020/12/13 00:20:03;;;;;;;54.38;37.15;;;;;;;10.48;64.32;92638.66;4958344;28;20050;-78
2020/12/13 00:22:29;;;;;;;56.38;37.50;;;;;;;10.46;63.84;92646.13;4981713;28;20403;-78
2020/12/13 00:24:54;;;;;;;50.70;36.08;;;;;;;10.43;64.55;92644.13;4975255;28;20046;-78
2020/12/13 00:27:19;;;;;;;52.65;34.67;;;;;;;10.39;64.57;92640.56;4963101;28;22629;-78
2020/12/13 00:29:45;;;;;;;54.55;36.78;;;;;;;10.47;64.44;92652.97;4958654;28;20050;-79
2020/12/13 00:32:10;;;;;;;58.50;37.17;;;;;;;10.50;64.59;92647.06;4969701;28;20054;-78
2020/12/13 00:34:36;;;;;;;50.47;34.03;;;;;;;10.41;64.58;92639.16;4971482;28;20431;-78
2020/12/13 00:37:02;;;;;;;49.53;35.53;;;;;;;10.42;65.02;92645.22;4973144;28;20035;-78
2020/12/13 00:39:27;;;;;;;49.58;34.83;;;;;;;10.41;65.29;92643.66;4973821;28;20070;-78
2020/12/13 00:41:54;;;;;;;59.30;37.53;;;;;;;10.41;65.52;92651.56;4947907;28;20106;-79
2020/12/13 00:44:20;;;;;;;53.78;36.92;;;;;;;10.48;65.25;92657.16;4960923;28;20038;-78
2020/12/13 00:46:46;;;;;;;56.85;36.53;;;;;;;10.49;64.93;92661.34;4969316;28;20408;-78
2020/12/13 00:49:12;;;;;;;58.22;37.88;;;;;;;10.39;65.34;92662.47;4953720;28;20033;-78
2020/12/13 00:51:37;;;;;;;59.00;38.55;;;;;;;10.37;65.09;92650.66;4971671;28;20042;-78
2020/12/13 00:54:03;;;;;;;61.75;39.08;;;;;;;10.36;65.24;92641.22;4973661;28;20189;-78
2020/12/13 00:56:28;;;;;;;54.75;36.45;;;;;;;10.36;65.68;92649.13;4973387;28;20053;-79
2020/12/13 00:58:54;;;;;;;52.00;35.05;;;;;;;10.39;65.50;92651.13;4976268;28;20041;-79
2020/12/13 01:01:20;;;;;;;69.65;46.13;;;;;;;10.32;65.67;92640.25;4976863;28;20516;-78
2020/12/13 01:03:45;;;;;;;78.70;52.92;;;;;;;10.34;66.10;92636.22;4972527;28;20318;-78
2020/12/13 01:06:11;;;;;;;83.82;57.92;;;;;;;10.36;65.94;92652.50;4971454;28;20042;-78
2020/12/13 01:08:36;;;;;;;98.82;66.35;;;;;;;10.38;65.74;92646.94;4974676;28;20042;-79
2020/12/13 01:11:02;;;;;;;93.03;61.78;;;;;;;10.55;65.33;92648.75;4975005;28;20530;-78
2020/12/13 01:13:28;;;;;;;100.22;64.07;;;;;;;10.61;65.10;92648.25;4981770;28;20022;-78
2020/12/13 01:15:54;;;;;;;92.90;60.88;;;;;;;10.59;65.10;92663.66;4955347;28;20038;-78
2020/12/13 01:18:20;;;;;;;95.10;61.13;;;;;;;10.62;64.75;92649.81;4969058;28;20050;-78
2020/12/13 01:20:45;;;;;;;90.32;59.58;;;;;;;10.67;64.74;92657.56;4967349;28;20039;-78
2020/12/13 01:23:11;;;;;;;90.50;61.58;;;;;;;10.62;64.80;92655.09;4962122;28;20105;-78
2020/12/13 01:25:36;;;;;;;89.70;58.25;;;;;;;10.59;64.89;92655.75;4977247;28;20069;-78
2020/12/13 01:28:02;;;;;;;92.22;60.85;;;;;;;10.55;64.79;92654.81;4974780;28;20023;-78
2020/12/13 01:30:27;;;;;;;96.47;62.55;;;;;;;10.56;64.96;92651.06;4975515;28;20125;-78
2020/12/13 01:32:53;;;;;;;85.53;55.80;;;;;;;10.59;64.95;92653.09;4975290;28;20042;-78
2020/12/13 01:35:18;;;;;;;95.60;63.28;;;;;;;10.59;65.00;92653.09;4975479;28;20045;-78
2020/12/13 01:37:44;;;;;;;94.30;62.58;;;;;;;10.61;65.02;92653.53;4974193;28;20041;-78
2020/12/13 01:40:10;;;;;;;96.45;63.25;;;;;;;10.57;65.35;92652.63;4977593;28;20546;-78
2020/12/13 01:42:42;;;;;;;96.00;62.88;;;;;;;10.57;65.06;92649.22;4958517;28;20041;-78
2020/12/13 01:45:10;;;;;;;97.18;62.35;;;;;;;10.54;65.41;92642.69;4968766;28;20045;-78
2020/12/13 01:47:36;;;;;;;91.07;61.72;;;;;;;10.58;65.16;92645.47;4966995;28;20046;-78
2020/12/13 01:50:03;;;;;;;96.53;63.53;;;;;;;10.63;65.05;92648.72;4959463;28;20043;-78
2020/12/13 01:52:44;;;;;;;99.72;62.40;;;;;;;10.64;64.97;92647.63;4961213;28;20373;-78
2020/12/13 01:55:11;;;;;;;98.22;64.05;;;;;;;10.62;65.04;92652.44;4958421;28;20043;-78
2020/12/13 01:57:39;;;;;;;103.80;68.97;;;;;;;10.61;64.93;92653.53;4954229;28;20050;-78
2020/12/13 02:00:16;;;;;;;83.22;56.45;;;;;;;10.62;64.52;92638.47;4967610;28;20075;-78
2020/12/13 02:02:51;;;;;;;75.97;54.10;;;;;;;10.63;64.62;92646.09;4972726;28;20367;-78
2020/12/13 02:05:20;;;;;;;71.60;50.33;;;;;;;10.65;64.68;92654.44;4968511;28;21292;-79
2020/12/13 02:07:47;;;;;;;66.30;46.17;;;;;;;10.67;64.72;92654.94;4962274;28;20039;-78
2020/12/13 02:10:13;;;;;;;69.32;46.88;;;;;;;10.66;64.61;92642.81;4991355;28;20101;-79
2020/12/13 02:12:38;;;;;;;72.13;50.08;;;;;;;10.69;64.49;92644.06;4972397;28;20050;-78
2020/12/13 02:15:08;;;;;;;84.05;52.97;;;;;;;10.62;64.50;92655.09;4988264;28;20050;-79
2020/12/13 02:17:36;;;;;;;84.57;54.47;;;;;;;10.59;64.58;92653.09;4973541;28;20122;-79
2020/12/13 02:20:12;;;;;;;86.80;54.95;;;;;;;10.57;64.70;92647.34;4973505;28;20108;-78
2020/12/13 02:22:46;;;;;;;75.50;49.97;;;;;;;10.57;64.54;92644.69;4972438;28;20042;-78
2020/12/13 02:25:15;;;;;;;78.57;52.92;;;;;;;10.62;64.78;92643.75;4959654;28;20027;-79
2020/12/13 02:27:41;;;;;;;73.10;50.63;;;;;;;10.57;64.73;92642.06;4955414;28;20055;-78
2020/12/13 02:30:07;;;;;;;79.28;52.05;;;;;;;10.59;64.95;92655.75;4969763;28;20038;-78
2020/12/13 02:32:34;;;;;;;77.40;50.50;;;;;;;10.57;64.86;92660.56;4978313;28;20125;-79
2020/12/13 02:34:59;;;;;;;72.25;50.78;;;;;;;10.49;65.04;92657.94;4973119;28;20046;-79
2020/12/13 02:37:26;;;;;;;68.82;49.47;;;;;;;10.56;64.88;92663.50;4980071;28;20026;-79
2020/12/13 02:39:52;;;;;;;71.82;48.35;;;;;;;10.56;64.95;92664.28;4986967;28;20058;-78
2020/12/13 02:42:17;;;;;;;69.22;47.58;;;;;;;10.56;64.78;92659.00;4970090;28;20050;-78
2020/12/13 02:44:43;;;;;;;65.45;47.03;;;;;;;10.51;64.01;92664.44;4967986;28;20069;-78
2020/12/13 02:47:08;;;;;;;75.63;48.47;;;;;;;10.42;64.19;92653.13;4954662;28;20043;-78
2020/12/13 02:49:34;;;;;;;77.45;49.88;;;;;;;10.38;64.04;92666.19;4960067;28;20056;-79
2020/12/13 02:52:00;;;;;;;71.00;49.30;;;;;;;10.27;63.59;92656.25;4959093;28;20134;-78
2020/12/13 02:54:25;;;;;;;75.38;51.50;;;;;;;10.15;64.01;92666.69;4973503;28;20153;-79
2020/12/13 02:56:51;;;;;;;84.75;55.03;;;;;;;10.02;64.88;92667.63;4971140;28;20093;-79
2020/12/13 02:59:16;;;;;;;79.95;51.92;;;;;;;9.99;64.90;92667.16;4958686;28;20050;-79
2020/12/13 03:01:42;;;;;;;70.95;48.72;;;;;;;9.92;64.58;92661.56;4956046;28;20027;-78
2020/12/13 03:04:07;;;;;;;75.07;50.25;;;;;;;9.82;63.92;92659.22;4959910;28;20448;-78
2020/12/13 03:06:33;;;;;;;69.20;49.17;;;;;;;9.78;63.58;92668.06;4974265;28;20571;-79
2020/12/13 03:08:58;;;;;;;78.68;52.97;;;;;;;9.71;63.90;92670.41;4976204;28;20043;-79
2020/12/13 03:11:24;;;;;;;84.15;47.80;;;;;;;9.68;63.96;92674.44;4970141;28;20125;-79
2020/12/13 03:13:51;;;;;;;78.50;49.95;;;;;;;9.64;63.76;92691.97;4953724;28;20110;-79
2020/12/13 03:16:17;;;;;;;91.72;56.35;;;;;;;9.59;63.74;92676.28;4959151;28;20031;-78
2020/12/13 03:18:43;;;;;;;83.80;52.60;;;;;;;9.60;63.93;92695.53;4956700;28;20073;-79
2020/12/13 03:21:08;;;;;;;78.20;51.58;;;;;;;9.50;64.15;92680.78;4962024;28;20067;-78
2020/12/13 03:23:34;;;;;;;78.88;50.47;;;;;;;9.47;64.47;92678.78;4953615;28;20043;-79
2020/12/13 03:25:59;;;;;;;74.75;46.00;;;;;;;9.50;64.64;92684.19;4959140;28;20528;-79
2020/12/13 03:28:25;;;;;;;60.78;40.50;;;;;;;9.46;64.45;92683.28;4967983;28;20029;-78
2020/12/13 03:30:50;;;;;;;81.32;49.13;;;;;;;9.40;64.52;92686.34;4978965;28;20054;-78
2020/12/13 03:33:16;;;;;;;57.10;37.33;;;;;;;9.43;64.46;92683.13;4960677;28;20130;-79
2020/12/13 03:35:41;;;;;;;113.03;67.03;;;;;;;9.43;63.82;92683.88;4968659;28;20054;-79
2020/12/13 03:38:07;;;;;;;58.85;38.22;;;;;;;9.45;63.90;92696.75;4976469;28;20418;-78
2020/12/13 03:40:32;;;;;;;55.58;36.17;;;;;;;9.50;63.95;92693.97;4978818;28;20372;-78
2020/12/13 03:42:58;;;;;;;57.15;38.22;;;;;;;9.48;64.49;92690.88;4988795;28;20038;-78
2020/12/13 03:45:23;;;;;;;65.40;43.90;;;;;;;9.49;65.14;92697.69;4990568;28;20487;-78
2020/12/13 03:47:49;;;;;;;67.13;45.17;;;;;;;9.46;65.72;92693.03;4975137;28;20050;-79
2020/12/13 03:50:14;;;;;;;64.32;43.10;;;;;;;9.49;65.80;92697.69;4976166;28;20046;-78
2020/12/13 03:52:39;;;;;;;71.32;46.92;;;;;;;9.54;66.18;92706.22;4978508;28;20078;-78
2020/12/13 03:55:05;;;;;;;65.35;43.63;;;;;;;9.56;65.97;92692.75;4959436;28;20031;-78
2020/12/13 03:57:30;;;;;;;80.93;53.58;;;;;;;9.56;66.08;92695.38;4959645;28;20047;-78
2020/12/13 03:59:56;;;;;;;83.22;55.58;;;;;;;9.57;66.30;92696.94;4956616;28;20857;-78
2020/12/13 04:02:21;;;;;;;94.95;60.58;;;;;;;9.63;66.40;92702.84;4959873;28;20046;-78
2020/12/13 04:04:47;;;;;;;106.55;65.40;;;;;;;9.62;66.27;92707.34;4973136;28;20034;-79
2020/12/13 04:07:12;;;;;;;98.40;63.80;;;;;;;9.62;66.46;92696.00;4960303;28;20027;-78
2020/12/13 04:09:38;;;;;;;98.40;61.03;;;;;;;9.64;66.39;92699.88;4957287;28;20048;-78
2020/12/13 04:12:03;;;;;;;100.85;60.78;;;;;;;9.67;66.57;92707.19;4956791;28;20037;-77
2020/12/13 04:14:28;;;;;;;95.35;58.85;;;;;;;9.67;66.42;92704.56;4963382;28;20038;-78
2020/12/13 04:16:54;;;;;;;98.97;59.10;;;;;;;9.70;66.35;92708.41;4957118;28;20037;-78
2020/12/13 04:19:19;;;;;;;94.03;58.65;;;;;;;9.76;66.43;92717.75;4961938;28;20825;-78
2020/12/13 04:21:45;;;;;;;90.65;56.85;;;;;;;9.76;66.29;92707.97;4956172;28;20557;-78
2020/12/13 04:24:10;;;;;;;88.65;56.13;;;;;;;9.76;66.14;92686.88;4950328;28;20106;-78
2020/12/13 04:26:36;;;;;;;92.07;56.38;;;;;;;9.86;66.12;92707.66;4958434;28;20039;-78
2020/12/13 04:29:01;;;;;;;89.53;55.95;;;;;;;9.87;66.22;92717.13;4960780;28;20126;-78
2020/12/13 04:31:27;;;;;;;94.80;56.20;;;;;;;9.87;66.00;92708.47;4980130;28;20089;-78
2020/12/13 04:33:52;;;;;;;86.53;53.83;;;;;;;9.83;66.31;92708.28;4971152;28;20101;-78
2020/12/13 04:36:18;;;;;;;84.90;54.53;;;;;;;9.87;65.96;92725.03;4975715;28;20093;-78
2020/12/13 04:38:43;;;;;;;93.70;54.08;;;;;;;9.91;66.08;92730.50;4978197;28;20130;-78
2020/12/13 04:41:09;;;;;;;87.82;52.72;;;;;;;9.92;65.75;92714.31;4974604;28;20549;-78
2020/12/13 04:43:34;;;;;;;89.32;52.85;;;;;;;9.96;65.74;92719.78;4975031;28;20549;-78
2020/12/13 04:46:00;;;;;;;104.43;59.08;;;;;;;9.93;65.79;92718.53;4974778;28;20098;-78
2020/12/13 04:48:26;;;;;;;94.47;56.13;;;;;;;9.96;65.59;92719.78;4979065;28;20035;-78
2020/12/13 04:50:52;;;;;;;87.30;52.97;;;;;;;10.00;65.49;92728.63;4979181;28;20049;-78
2020/12/13 04:53:18;;;;;;;97.93;56.83;;;;;;;9.96;65.70;92722.44;4971480;28;20057;-78
2020/12/13 04:55:54;;;;;;;92.65;56.47;;;;;;;10.00;65.73;92728.63;4973007;28;20042;-78
2020/12/13 04:58:28;;;;;;;100.00;57.83;;;;;;;9.93;65.66;92736.22;4979869;28;20046;-78
2020/12/13 05:00:54;;;;;;;99.57;57.50;;;;;;;9.94;65.44;92733.28;4972411;28;20504;-78
2020/12/13 05:03:21;;;;;;;99.57;56.13;;;;;;;9.94;65.91;92727.22;4974264;28;20057;-78
2020/12/13 05:05:47;;;;;;;97.82;53.75;;;;;;;9.91;66.00;92736.53;4973189;28;20173;-78
2020/12/13 05:08:12;;;;;;;97.28;53.22;;;;;;;9.91;65.94;92730.50;4977606;28;20039;-78
2020/12/13 05:10:38;;;;;;;98.07;55.70;;;;;;;9.89;65.93;92730.78;4974422;28;20030;-78
2020/12/13 05:13:08;;;;;;;96.88;51.50;;;;;;;9.92;65.79;92730.16;4977514;28;20444;-78
2020/12/13 05:15:38;;;;;;;99.10;53.70;;;;;;;9.91;65.72;92741.03;4975316;28;20506;-78
2020/12/13 05:18:04;;;;;;;93.03;52.53;;;;;;;9.87;66.18;92734.84;4989745;28;20537;-78
2020/12/13 05:20:30;;;;;;;105.00;57.53;;;;;;;9.83;66.27;92728.59;4973731;28;20041;-78
2020/12/13 05:22:57;;;;;;;112.07;56.95;;;;;;;9.77;66.51;92721.94;4973937;28;20391;-78
2020/12/13 05:25:33;;;;;;;92.07;49.30;;;;;;;9.84;66.21;92736.22;4976622;28;20025;-78
2020/12/13 05:28:01;;;;;;;94.88;50.13;;;;;;;9.76;66.12;92731.72;4974136;28;20050;-78
2020/12/13 05:30:31;;;;;;;80.35;44.80;;;;;;;9.73;65.97;92732.31;4978587;28;20039;-78
2020/12/13 05:33:03;;;;;;;79.25;43.70;;;;;;;9.67;66.16;92738.84;4975073;28;20070;-78
2020/12/13 05:35:29;;;;;;;87.10;47.15;;;;;;;9.71;65.77;92741.63;4978423;28;20041;-78
2020/12/13 05:37:55;;;;;;;92.93;48.53;;;;;;;9.64;65.97;92742.09;4974962;28;20022;-78
2020/12/13 05:40:22;;;;;;;82.45;43.70;;;;;;;9.58;66.43;92738.81;4977832;28;20035;-78
2020/12/13 05:42:55;;;;;;;83.30;44.70;;;;;;;9.53;66.65;92751.34;4972505;28;20116;-78
2020/12/13 05:45:47;;;;;;;93.80;45.25;;;;;;;9.45;67.08;92741.56;4977209;28;20048;-78
2020/12/13 05:53:46;;;;;;;88.32;42.78;;;;;;;9.45;66.84;92752.13;4971891;28;20038;-78
2020/12/13 05:56:12;;;;;;;89.07;44.42;;;;;;;9.45;66.96;92752.91;4969922;28;20035;-78
2020/12/13 05:58:37;;;;;;;89.68;45.33;;;;;;;9.35;67.10;92755.03;4953785;28;20054;-78
2020/12/13 06:01:04;;;;;;;86.18;45.75;;;;;;;9.43;67.35;92762.97;4956184;28;20030;-78
2020/12/13 06:03:35;;;;;;;100.47;50.20;;;;;;;9.44;67.38;92774.28;4953572;28;20046;-78
2020/12/13 06:06:07;;;;;;;93.13;49.38;;;;;;;9.50;67.08;92763.31;4954921;28;20035;-78
2020/12/13 06:09:12;;;;;;;97.88;49.60;;;;;;;9.50;67.12;92765.94;4953697;28;20082;-78
2020/12/13 06:11:48;;;;;;;142.13;63.92;;;;;;;9.47;67.04;92763.16;4953571;28;20523;-78
2020/12/13 06:14:15;;;;;;;120.57;57.47;;;;;;;9.48;66.88;92770.75;4950941;28;20054;-78
2020/12/13 06:16:42;;;;;;;73.85;42.30;;;;;;;9.40;66.65;92784.69;4957341;28;20113;-78
2020/12/13 06:19:09;;;;;;;72.28;42.25;;;;;;;9.36;66.53;92775.06;4955198;28;20077;-78
2020/12/13 06:21:37;;;;;;;102.35;62.22;;;;;;;9.41;65.72;92782.81;4956777;28;20556;-78
2020/12/13 06:24:03;;;;;;;85.95;51.80;;;;;;;9.44;65.69;92787.47;4968170;28;20047;-78
2020/12/13 06:26:29;;;;;;;70.93;44.75;;;;;;;9.44;65.27;92779.56;4970364;28;20042;-78
2020/12/13 06:28:56;;;;;;;78.03;46.70;;;;;;;9.48;65.41;92789.19;4954698;28;20019;-78
2020/12/13 06:31:22;;;;;;;74.63;42.97;;;;;;;9.50;65.52;92788.91;4964198;28;20153;-78
2020/12/13 06:33:47;;;;;;;83.20;42.00;;;;;;;9.47;65.97;92789.53;4975567;28;20137;-78
2020/12/13 06:36:13;;;;;;;69.20;39.95;;;;;;;9.53;66.15;92793.56;4978196;28;20495;-78
2020/12/13 06:38:41;;;;;;;70.60;38.75;;;;;;;9.55;66.18;92791.41;4974076;28;20034;-78
2020/12/13 06:41:12;;;;;;;76.60;39.95;;;;;;;9.59;65.70;92797.63;4978503;28;20046;-78
2020/12/13 06:43:50;;;;;;;70.18;39.85;;;;;;;9.58;65.50;92794.19;4977427;28;20483;-78
2020/12/13 06:46:16;;;;;;;72.68;38.38;;;;;;;9.61;65.69;92798.09;4960845;28;20077;-78
2020/12/13 06:48:46;;;;;;;78.80;41.72;;;;;;;9.55;65.69;92791.41;4959081;28;20070;-78
2020/12/13 06:51:27;;;;;;;80.00;43.20;;;;;;;9.58;65.75;92801.31;4960070;28;20039;-78
2020/12/13 06:53:53;;;;;;;88.05;44.28;;;;;;;9.55;66.50;92809.88;4967668;28;20077;-78
2020/12/13 06:56:21;;;;;;;79.85;44.35;;;;;;;9.49;66.58;92806.59;4978463;28;20101;-78
2020/12/13 06:58:55;;;;;;;91.97;46.40;;;;;;;9.48;66.49;92809.53;4978389;28;20052;-78
2020/12/13 07:01:25;;;;;;;91.13;44.40;;;;;;;9.56;66.33;92814.06;4978470;28;20026;-78
2020/12/13 07:03:51;;;;;;;76.35;41.17;;;;;;;9.55;66.07;92812.50;4973268;28;20050;-78
2020/12/13 07:06:27;;;;;;;82.22;43.00;;;;;;;9.57;65.76;92815.63;4972150;28;20100;-78
2020/12/13 07:08:57;;;;;;;78.65;42.22;;;;;;;9.59;65.83;92818.72;4978983;28;20047;-78
2020/12/13 07:11:24;;;;;;;83.65;47.35;;;;;;;9.57;65.71;92812.97;4975388;28;20545;-78
2020/12/13 07:13:51;;;;;;;84.80;47.80;;;;;;;9.70;65.49;92820.00;4972017;28;20557;-78
2020/12/13 07:16:33;;;;;;;79.13;45.75;;;;;;;9.64;65.54;92815.94;4978504;28;20155;-78
2020/12/13 07:19:11;;;;;;;80.38;43.97;;;;;;;9.74;65.63;92814.88;4956695;28;20042;-78
2020/12/13 07:21:38;;;;;;;79.13;43.83;;;;;;;9.79;65.63;92822.66;4972340;28;20046;-78
2020/12/13 07:24:05;;;;;;;87.38;47.63;;;;;;;9.85;65.67;92826.72;4976395;28;20100;-78
2020/12/13 07:26:32;;;;;;;86.28;46.60;;;;;;;9.88;65.51;92829.50;4977429;28;22953;-78
2020/12/13 07:28:59;;;;;;;85.80;47.17;;;;;;;9.89;65.71;92840.84;4975656;28;20452;-78
2020/12/13 07:31:26;;;;;;;85.90;44.65;;;;;;;9.87;65.61;92835.88;4981829;28;20070;-78
2020/12/13 07:33:53;;;;;;;95.05;47.67;;;;;;;9.92;65.76;92833.06;4974407;28;20435;-78
2020/12/13 07:36:19;;;;;;;84.28;45.60;;;;;;;10.02;65.55;92837.28;4972258;28;20081;-78
2020/12/13 07:38:46;;;;;;;92.32;49.10;;;;;;;10.11;65.34;92850.53;4976622;28;20057;-78
2020/12/13 07:41:19;;;;;;;96.45;49.58;;;;;;;10.16;65.26;92853.06;4976559;28;20580;-79
2020/12/13 07:44:06;;;;;;;97.63;50.13;;;;;;;10.17;65.10;92857.22;4972813;28;20030;-78
2020/12/13 07:46:33;;;;;;;94.03;48.92;;;;;;;10.11;64.90;92861.09;4960570;28;20027;-78
2020/12/13 07:49:09;;;;;;;89.55;48.22;;;;;;;10.16;64.93;92863.63;4953379;28;20050;-78
2020/12/13 07:51:37;;;;;;;99.25;51.42;;;;;;;10.21;64.95;92868.75;4989646;28;20104;-78
2020/12/13 07:54:14;;;;;;;98.07;50.53;;;;;;;10.20;65.23;92865.31;4975361;28;20480;-78
2020/12/13 07:56:41;;;;;;;93.72;50.97;;;;;;;10.21;64.97;92871.38;4975077;28;20923;-78
2020/12/13 07:59:18;;;;;;;100.20;53.35;;;;;;;10.20;64.96;92865.31;4976790;28;20049;-78
2020/12/13 08:01:49;;;;;;;94.35;49.17;;;;;;;10.34;64.99;92886.31;4974321;28;20032;-78
2020/12/13 08:04:15;;;;;;;92.15;48.83;;;;;;;10.36;65.17;92884.16;4977190;28;20044;-79
2020/12/13 08:06:42;;;;;;;91.90;48.80;;;;;;;10.35;64.66;92888.66;4978269;28;20130;-78
2020/12/13 08:09:12;;;;;;;83.32;45.30;;;;;;;10.33;64.43;92895.31;4978007;28;20101;-78
2020/12/13 08:11:38;;;;;;;91.40;49.75;;;;;;;10.39;64.31;92896.72;4976792;28;20074;-78
2020/12/13 08:14:05;;;;;;;85.05;48.13;;;;;;;10.44;64.41;92891.28;4990056;28;20456;-79
2020/12/13 08:16:32;;;;;;;79.05;44.00;;;;;;;10.39;64.86;92896.72;4977243;28;20027;-78
2020/12/13 08:19:32;;;;;;;89.30;50.00;;;;;;;10.42;64.64;92888.19;4976403;28;20100;-78
2020/12/13 08:22:01;;;;;;;83.47;46.88;;;;;;;10.47;64.21;92889.88;4968274;28;20339;-78
2020/12/13 08:24:28;;;;;;;84.35;48.42;;;;;;;10.47;64.55;92882.75;4973372;28;20047;-78
2020/12/13 08:26:57;;;;;;;87.75;49.20;;;;;;;10.49;64.54;92883.22;4965525;28;20047;-78
2020/12/13 08:29:24;;;;;;;92.18;50.65;;;;;;;10.45;64.38;92882.28;4956438;28;20130;-78
2020/12/13 08:31:51;;;;;;;98.50;52.03;;;;;;;10.51;64.82;92883.69;4953482;28;20031;-78
2020/12/13 08:34:23;;;;;;;92.35;48.50;;;;;;;10.55;63.83;92874.06;4953348;28;20476;-78
2020/12/13 08:36:54;;;;;;;96.45;50.78;;;;;;;10.54;63.43;92879.66;4974286;28;20046;-78
2020/12/13 08:39:30;;;;;;;92.97;52.22;;;;;;;10.55;63.64;92886.50;4974177;28;20130;-78
2020/12/13 08:41:57;;;;;;;90.00;50.80;;;;;;;10.56;63.51;92888.03;4980720;28;20422;-78
2020/12/13 08:44:36;;;;;;;95.78;52.97;;;;;;;10.56;63.72;92893.31;4972475;28;20026;-78
2020/12/13 08:47:08;;;;;;;96.13;52.83;;;;;;;10.58;63.87;92899.84;4969683;28;20031;-78
2020/12/13 08:49:43;;;;;;;98.80;55.33;;;;;;;10.54;64.08;92890.22;4965053;28;20035;-78
2020/12/13 08:52:26;;;;;;;94.32;49.70;;;;;;;10.54;63.77;92909.50;4980054;28;20585;-78
2020/12/13 08:54:52;;;;;;;87.65;48.70;;;;;;;10.57;63.78;92908.09;4970227;28;20038;-79
2020/12/13 08:57:45;;;;;;;88.45;51.72;;;;;;;10.64;63.32;92908.41;4956295;28;20046;-78
2020/12/13 09:00:14;;;;;;;100.93;48.28;;;;;;;10.72;63.06;92908.41;4947134;28;20398;-79
2020/12/13 09:02:56;;;;;;;87.10;50.67;;;;;;;10.73;63.32;92901.25;4966364;28;20046;-79
2020/12/13 09:05:32;;;;;;;82.18;45.55;;;;;;;10.88;62.63;92915.88;4974875;28;20503;-79
2020/12/13 09:07:59;;;;;;;84.15;48.78;;;;;;;10.80;62.10;92899.69;4975063;28;20109;-79
2020/12/13 09:10:27;;;;;;;99.20;56.45;;;;;;;10.98;62.01;92910.28;4980870;28;20044;-79
2020/12/13 09:12:53;;;;;;;89.43;51.45;;;;;;;11.14;62.24;92903.44;4974510;28;20050;-78
2020/12/13 09:15:24;;;;;;;88.57;49.78;;;;;;;11.27;61.72;92897.19;4972669;28;20043;-79
2020/12/13 09:17:58;;;;;;;91.88;49.45;;;;;;;11.36;60.99;92900.59;4972003;28;20518;-79
2020/12/13 09:20:29;;;;;;;87.55;51.08;;;;;;;11.42;60.79;92887.97;4973518;28;20050;-79
2020/12/13 09:23:02;;;;;;;93.03;51.95;;;;;;;11.52;60.84;92896.34;4972293;28;20030;-79
2020/12/13 09:25:27;;;;;;;98.70;56.75;;;;;;;11.51;61.63;92886.09;4975293;28;20130;-79
2020/12/13 09:28:00;;;;;;;89.03;48.60;;;;;;;11.52;60.78;92893.72;4973342;28;20550;-79
2020/12/13 09:30:25;;;;;;;76.85;43.45;;;;;;;11.60;60.31;92890.25;4976025;28;20042;-79
2020/12/13 09:32:50;;;;;;;79.28;43.72;;;;;;;11.61;60.31;92891.81;4974584;28;20045;-79
2020/12/13 09:35:16;;;;;;;79.60;44.17;;;;;;;11.67;59.12;92900.38;4973030;28;20038;-79
2020/12/13 09:37:41;;;;;;;67.00;39.15;;;;;;;11.66;59.18;92899.59;4972345;28;20037;-78
2020/12/13 09:40:07;;;;;;;60.03;36.30;;;;;;;11.74;58.92;92890.09;4953698;28;20437;-79
2020/12/13 09:42:32;;;;;;;77.97;45.22;;;;;;;11.81;59.22;92884.31;4951558;28;20050;-79
2020/12/13 09:44:58;;;;;;;53.90;31.48;;;;;;;11.70;59.12;92895.22;4954323;28;20090;-79
2020/12/13 09:47:23;;;;;;;43.78;26.65;;;;;;;11.80;57.89;92893.34;4958334;28;20046;-79
2020/12/13 09:49:49;;;;;;;47.60;27.25;;;;;;;11.78;57.94;92891.00;4975457;28;20050;-79
2020/12/13 09:52:14;;;;;;;46.40;28.45;;;;;;;11.84;57.52;92894.25;4975358;28;20045;-79
2020/12/13 09:54:39;;;;;;;53.08;30.23;;;;;;;11.96;57.60;92894.38;4974867;28;20140;-78
2020/12/13 09:57:05;;;;;;;40.60;26.25;;;;;;;11.96;57.59;92892.50;4971855;28;20050;-79
2020/12/13 09:59:30;;;;;;;43.97;27.50;;;;;;;11.99;57.82;92896.38;4974178;28;20537;-79
2020/12/13 10:01:56;;;;;;;56.60;34.83;;;;;;;12.07;58.25;92885.72;4970856;28;20137;-79
2020/12/13 10:04:22;;;;;;;60.40;36.58;;;;;;;12.22;58.60;92889.69;4956441;28;20046;-79
2020/12/13 10:09:33;;;;;;;51.15;32.72;;;;;;;12.23;58.06;92880.66;4954529;28;20101;-79
2020/12/13 10:11:58;;;;;;;56.03;32.88;;;;;;;12.21;57.96;92864.34;4953988;28;20054;-79
2020/12/13 10:14:24;;;;;;;48.80;30.02;;;;;;;12.32;57.91;92864.72;4953038;28;20043;-79
2020/12/13 10:16:50;;;;;;;40.22;25.58;;;;;;;12.29;57.50;92868.78;4955551;28;20038;-79
2020/12/13 10:19:15;;;;;;;49.95;30.52;;;;;;;12.27;57.94;92875.50;4955573;28;20369;-79
2020/12/13 10:21:41;;;;;;;49.92;30.90;;;;;;;12.28;58.12;92872.53;4957588;28;20165;-79
2020/12/13 10:24:07;;;;;;;59.35;35.03;;;;;;;12.32;57.93;92865.50;4967967;28;20066;-79
2020/12/13 10:26:36;;;;;;;73.68;45.53;;;;;;;12.42;57.95;92857.16;4974405;28;20041;-79
2020/12/13 10:29:03;;;;;;;58.83;36.30;;;;;;;12.49;57.90;92868.03;4975637;28;21141;-79
2020/12/13 10:31:32;;;;;;;56.05;35.65;;;;;;;12.58;57.52;92879.34;4972899;28;20418;-79
2020/12/13 10:33:59;;;;;;;57.38;37.60;;;;;;;12.56;57.44;92856.91;4971316;28;20050;-80
2020/12/13 10:36:25;;;;;;;67.30;39.58;;;;;;;12.75;57.80;92875.81;4988354;28;20191;-79
2020/12/13 10:38:53;;;;;;;91.63;56.00;;;;;;;12.82;57.57;92864.69;4972517;28;20050;-79
2020/12/13 10:41:20;;;;;;;110.45;72.57;;;;;;;12.94;57.65;92868.19;4975862;28;20045;-79
2020/12/13 10:43:46;;;;;;;78.90;47.55;;;;;;;13.00;57.40;92871.38;4963508;28;20061;-79
2020/12/13 10:46:12;;;;;;;99.25;51.50;;;;;;;12.87;56.78;92862.59;4959531;28;20046;-79
2020/12/13 10:48:38;;;;;;;106.72;62.78;;;;;;;12.90;57.09;92866.50;4957005;28;20467;-79
2020/12/13 10:51:03;;;;;;;84.20;50.05;;;;;;;12.90;56.48;92858.53;4970551;28;20592;-79
2020/12/13 10:53:29;;;;;;;78.88;46.90;;;;;;;12.88;56.04;92852.78;4973965;28;20027;-79
2020/12/13 10:55:55;;;;;;;70.78;48.00;;;;;;;13.00;55.90;92868.72;4978797;28;20031;-79
2020/12/13 10:58:21;;;;;;;70.13;47.22;;;;;;;13.03;56.54;92874.19;4962415;28;20065;-79
2020/12/13 11:00:47;;;;;;;82.57;52.95;;;;;;;12.88;57.04;92864.16;4974923;28;20054;-79
2020/12/13 11:03:14;;;;;;;70.63;45.53;;;;;;;12.82;56.24;92875.28;4977438;28;20433;-79
2020/12/13 11:05:40;;;;;;;84.28;52.67;;;;;;;12.89;56.13;92862.28;4975109;28;20043;-79
2020/12/13 11:08:05;;;;;;;72.28;46.63;;;;;;;12.94;56.15;92865.53;4976974;28;20510;-79
2020/12/13 11:10:31;;;;;;;76.68;50.50;;;;;;;12.97;56.07;92870.16;4982182;28;20027;-79
2020/12/13 11:12:57;;;;;;;217.80;119.90;;;;;;;13.09;56.77;92869.44;4983248;28;20042;-79
2020/12/13 11:15:23;;;;;;;99.20;65.25;;;;;;;13.18;55.99;92872.81;4983691;28;20038;-79
2020/12/13 11:17:48;;;;;;;101.45;54.15;;;;;;;13.25;55.12;92878.38;4982695;28;20570;-79
2020/12/13 11:20:14;;;;;;;57.72;39.45;;;;;;;13.29;55.10;92868.66;4980470;28;20511;-79
2020/12/13 11:22:39;;;;;;;59.50;41.13;;;;;;;13.33;55.68;92866.91;4981275;28;20073;-79
2020/12/13 11:25:05;;;;;;;61.75;40.47;;;;;;;13.37;55.14;92859.06;4963276;28;20398;-79
2020/12/13 11:27:30;;;;;;;54.15;37.22;;;;;;;13.42;55.06;92862.28;4977018;28;20045;-79
2020/12/13 11:29:56;;;;;;;41.45;29.98;;;;;;;13.41;54.31;92860.72;4981170;28;20465;-78